Pensaukee, Wisconsin
Current Conditions -  °F | °C
As of 12:35 AM on Tuesday 21 Oct 2014 (Local Time) from KOCQ Reporting Station
Overcast Overcast  
Wind Chill: 40°   Ceiling: 5000
Heat Index: 44°   Visibility: 10mi
Dew Point: 40°   Wind: 7mph
Humidity: 87%   Direction: 340°NNW
Pressure: 30.05"   Gusts: NA
Location:  44.8992°N, 87.92°W
Report Text: KOCQ 210535Z AUTO 34006KT 10SM OVC050 07/05 A3005 RMK AO1 T00660045
Loading
Personal Weather Stations






























Interactive Weather Map
Tropical Storm Tracking
New forecast layout! Learn more

10-Day Weather Forecast

Advertisements
Track Severe Weather on mobile